Time;durP1;ratioP1;P1;durP2;ratioP2;P2;SDS_P1;SDS_P2;PMS_P1;PMS_P2;Temp;Humidity;BMP_temperature;BMP_pressure;BME280_temperature;BME280_humidity;BME280_pressure;Samples;Min_cycle;Max_cycle;Signal;HPM_P1;HPM_P2
2022/05/16 00:00:31;;;;;;;8.02;3.45;;;13.20;99.90;;;;;;5092913;28;20496;-86
2022/05/16 00:02:59;;;;;;;11.68;4.40;;;13.20;99.90;;;;;;5091574;28;20139;-87
2022/05/16 00:05:25;;;;;;;7.10;4.25;;;13.10;99.90;;;;;;5092542;28;20044;-87
2022/05/16 00:07:50;;;;;;;6.68;3.90;;;13.20;99.90;;;;;;5094517;28;20372;-87
2022/05/16 00:10:16;;;;;;;12.07;4.38;;;13.20;99.90;;;;;;5094372;28;20054;-86
2022/05/16 00:12:42;;;;;;;9.02;3.85;;;13.10;99.90;;;;;;5091922;28;20048;-86
2022/05/16 00:15:08;;;;;;;7.88;3.97;;;13.10;99.90;;;;;;5092569;28;20050;-87
2022/05/16 00:17:34;;;;;;;11.75;3.70;;;13.10;99.90;;;;;;5061477;28;20067;-86
2022/05/16 00:20:00;;;;;;;7.15;3.30;;;13.10;99.90;;;;;;5093620;28;20040;-87
2022/05/16 00:22:27;;;;;;;7.10;3.35;;;13.10;99.90;;;;;;5094283;28;20404;-87
2022/05/16 00:24:53;;;;;;;6.10;3.70;;;13.10;99.90;;;;;;5093461;28;20044;-87
2022/05/16 00:27:19;;;;;;;5.80;3.42;;;13.10;99.90;;;;;;5074695;28;20446;-88
2022/05/16 00:29:44;;;;;;;7.85;3.22;;;13.10;99.90;;;;;;5091975;28;20441;-88
2022/05/16 00:32:10;;;;;;;8.82;3.90;;;13.10;99.90;;;;;;5092621;28;20509;-88
2022/05/16 00:34:36;;;;;;;9.55;3.63;;;13.10;99.90;;;;;;5074919;28;20396;-87
2022/05/16 00:37:02;;;;;;;8.50;3.83;;;13.10;99.90;;;;;;5075469;28;20055;-87
2022/05/16 00:39:28;;;;;;;8.43;3.90;;;13.10;99.90;;;;;;5093470;28;20143;-88
2022/05/16 00:41:53;;;;;;;9.38;3.55;;;13.00;99.90;;;;;;5091806;28;20043;-87
2022/05/16 00:44:20;;;;;;;8.00;4.03;;;13.10;99.90;;;;;;5093322;28;20047;-87
2022/05/16 00:46:47;;;;;;;9.00;3.67;;;13.10;99.90;;;;;;5076426;28;20205;-88
2022/05/16 00:49:21;;;;;;;10.07;3.80;;;13.00;99.90;;;;;;5092279;28;20052;-87
2022/05/16 00:51:49;;;;;;;9.75;3.47;;;13.00;99.90;;;;;;5113310;28;20070;-86
2022/05/16 00:54:18;;;;;;;10.68;4.00;;;13.00;99.90;;;;;;5132418;28;20031;-87
2022/05/16 00:56:44;;;;;;;6.22;3.50;;;13.00;99.90;;;;;;5117495;28;20063;-87
2022/05/16 00:59:10;;;;;;;8.80;3.78;;;13.00;99.90;;;;;;5113566;28;20059;-87
2022/05/16 01:07:04;;;;;;;8.07;3.67;;;13.00;99.90;;;;;;5095046;28;20055;-87
2022/05/16 01:09:30;;;;;;;5.88;3.83;;;13.00;99.90;;;;;;5092248;28;20047;-88
2022/05/16 01:11:56;;;;;;;7.40;3.70;;;13.00;99.90;;;;;;5075425;28;20052;-88
2022/05/16 01:14:50;;;;;;;11.18;3.83;;;12.90;99.90;;;;;;5074741;28;20036;-87
2022/05/16 01:17:17;;;;;;;8.25;3.85;;;12.90;99.90;;;;;;5091687;28;20056;-88
2022/05/16 01:19:43;;;;;;;9.18;3.85;;;12.90;99.90;;;;;;5074829;28;20056;-88
2022/05/16 01:22:31;;;;;;;7.18;3.47;;;12.80;99.90;;;;;;5091898;28;20127;-88
2022/05/16 01:24:58;;;;;;;7.30;3.28;;;12.90;99.90;;;;;;5091387;28;21911;-87
2022/05/16 01:27:24;;;;;;;5.95;3.28;;;12.80;99.90;;;;;;5092846;28;20048;-87
2022/05/16 01:29:49;;;;;;;5.47;3.35;;;12.80;99.90;;;;;;5093277;28;20481;-88
2022/05/16 01:32:15;;;;;;;9.00;3.30;;;12.80;99.90;;;;;;5092018;28;20052;-87
2022/05/16 01:34:41;;;;;;;6.60;3.30;;;12.80;99.90;;;;;;5075245;28;20040;-88
2022/05/16 01:37:07;;;;;;;6.60;3.30;;;12.80;99.90;;;;;;5088654;28;20399;-87
2022/05/16 01:39:33;;;;;;;8.02;3.60;;;12.80;99.90;;;;;;5079227;28;20040;-87
2022/05/16 01:41:59;;;;;;;7.22;3.92;;;12.80;99.90;;;;;;5087542;28;20046;-88
2022/05/16 01:44:24;;;;;;;7.60;3.60;;;12.70;99.90;;;;;;5101568;28;20040;-88
2022/05/16 01:46:50;;;;;;;7.60;3.33;;;12.70;99.90;;;;;;5093715;28;20075;-87
2022/05/16 01:49:16;;;;;;;5.60;3.50;;;12.70;99.90;;;;;;5095682;28;20036;-87
2022/05/16 01:51:41;;;;;;;6.80;3.50;;;12.70;99.90;;;;;;5092876;28;20109;-88
2022/05/16 01:54:07;;;;;;;9.48;3.80;;;12.70;99.90;;;;;;5076340;28;20053;-87
2022/05/16 01:56:33;;;;;;;5.95;3.20;;;12.70;99.90;;;;;;5084015;28;20133;-89
2022/05/16 01:59:00;;;;;;;6.60;3.78;;;12.70;99.90;;;;;;5084540;28;20067;-86
2022/05/16 02:01:26;;;;;;;6.70;3.13;;;12.60;99.90;;;;;;5107737;28;20048;-87
2022/05/16 02:03:51;;;;;;;8.80;3.65;;;12.60;99.90;;;;;;5077614;28;20056;-87
2022/05/16 02:06:17;;;;;;;6.43;3.33;;;12.60;99.90;;;;;;5078545;28;20056;-87
2022/05/16 02:08:43;;;;;;;7.10;3.80;;;12.60;99.90;;;;;;5093148;28;20459;-87
2022/05/16 02:11:09;;;;;;;6.57;3.28;;;12.60;99.90;;;;;;5077929;28;20500;-87
2022/05/16 02:13:38;;;;;;;6.82;3.42;;;12.60;99.90;;;;;;5096784;28;20031;-88
2022/05/16 02:16:04;;;;;;;6.93;3.15;;;12.60;99.90;;;;;;5098602;28;20047;-87
2022/05/16 02:18:30;;;;;;;8.20;3.35;;;12.50;99.80;;;;;;5080005;28;20043;-87
2022/05/16 02:24:38;;;;;;;6.30;3.15;;;12.60;99.80;;;;;;5096591;28;20036;-87
2022/05/16 02:26:26;;;;;;;5.53;3.40;;;12.50;99.70;;;;;;5080552;28;20059;-87
2022/05/16 02:28:51;;;;;;;6.47;3.55;;;12.50;99.70;;;;;;5095327;28;20066;-87
2022/05/16 02:31:19;;;;;;;7.32;2.80;;;12.50;99.70;;;;;;5094262;28;20035;-87
2022/05/16 02:33:46;;;;;;;7.22;3.08;;;12.50;99.60;;;;;;5095460;28;20044;-87
2022/05/16 02:36:12;;;;;;;7.10;3.00;;;12.50;99.60;;;;;;5094907;28;20156;-88
2022/05/16 02:38:37;;;;;;;5.00;3.00;;;12.50;99.50;;;;;;5093636;28;20483;-87
2022/05/16 02:41:03;;;;;;;5.75;3.03;;;12.50;99.50;;;;;;5077543;28;20040;-86
2022/05/16 02:43:28;;;;;;;5.03;3.20;;;12.50;99.50;;;;;;5094361;28;20071;-87
2022/05/16 02:45:54;;;;;;;7.80;3.38;;;12.50;99.40;;;;;;5096274;28;20047;-87
2022/05/16 02:48:20;;;;;;;4.32;2.70;;;12.50;99.40;;;;;;5094671;28;20036;-87
2022/05/16 02:50:45;;;;;;;5.93;2.90;;;12.40;99.40;;;;;;5100378;28;20081;-87
2022/05/16 02:53:11;;;;;;;4.30;2.70;;;12.40;99.30;;;;;;5099638;28;20418;-88
2022/05/16 02:55:37;;;;;;;6.82;2.88;;;12.40;99.30;;;;;;5099244;28;20051;-87
2022/05/16 02:58:03;;;;;;;8.57;2.85;;;12.40;99.30;;;;;;5114856;28;20123;-87
2022/05/16 03:00:29;;;;;;;6.15;3.00;;;12.40;99.30;;;;;;5100241;28;20028;-86
2022/05/16 03:02:54;;;;;;;6.78;3.03;;;12.30;99.30;;;;;;5116419;28;20055;-87
2022/05/16 03:05:20;;;;;;;6.47;2.95;;;12.30;99.30;;;;;;5106161;28;20055;-87
2022/05/16 03:07:46;;;;;;;5.82;2.60;;;12.30;99.30;;;;;;5101235;28;20071;-87
2022/05/16 03:10:15;;;;;;;5.13;2.58;;;12.30;99.30;;;;;;5101240;28;20052;-87
2022/05/16 03:12:43;;;;;;;5.60;2.70;;;12.30;99.20;;;;;;5099757;28;20052;-88
2022/05/16 03:15:09;;;;;;;4.50;2.50;;;12.30;99.20;;;;;;5095360;28;20395;-88
2022/05/16 03:17:35;;;;;;;5.50;2.40;;;12.30;99.20;;;;;;5077214;28;20123;-87
2022/05/16 03:20:01;;;;;;;7.28;3.05;;;12.20;99.20;;;;;;5094066;28;20493;-88
2022/05/16 03:22:26;;;;;;;6.70;2.58;;;12.20;99.20;;;;;;5093151;28;20044;-88
2022/05/16 03:24:52;;;;;;;4.38;2.53;;;12.20;99.20;;;;;;5094581;28;20093;-87
2022/05/16 03:27:17;;;;;;;3.88;2.40;;;12.20;99.10;;;;;;5094039;28;20040;-88
2022/05/16 03:29:43;;;;;;;4.05;2.42;;;12.20;99.10;;;;;;5076941;28;20078;-88
2022/05/16 03:32:09;;;;;;;4.72;2.53;;;12.20;99.10;;;;;;5092909;28;20556;-88
2022/05/16 03:34:34;;;;;;;4.95;2.50;;;12.10;99.00;;;;;;5092723;28;20154;-88
2022/05/16 03:37:00;;;;;;;7.43;2.35;;;12.10;99.00;;;;;;5092907;28;20044;-87
2022/05/16 03:42:10;;;;;;;4.60;2.25;;;12.10;98.90;;;;;;5094279;28;20051;-87
2022/05/16 03:44:36;;;;;;;4.10;2.28;;;12.10;99.00;;;;;;5093560;28;20048;-88
2022/05/16 03:47:02;;;;;;;5.65;2.42;;;12.10;99.00;;;;;;5095140;28;20044;-87
2022/05/16 03:49:30;;;;;;;4.78;2.20;;;12.00;98.90;;;;;;5093919;28;20048;-87
2022/05/16 03:51:56;;;;;;;4.57;2.40;;;12.00;98.90;;;;;;5093620;28;20055;-86
2022/05/16 03:54:21;;;;;;;4.35;2.40;;;12.00;98.90;;;;;;5093694;28;20048;-86
2022/05/16 03:56:47;;;;;;;6.25;2.78;;;12.00;98.90;;;;;;5092753;28;20483;-86
2022/05/16 03:59:12;;;;;;;6.45;2.40;;;12.00;98.80;;;;;;5092334;28;20044;-86
2022/05/16 04:01:39;;;;;;;6.78;2.70;;;12.00;98.80;;;;;;5093412;28;20040;-85
2022/05/16 04:04:04;;;;;;;5.07;2.20;;;12.00;98.80;;;;;;5058139;28;20059;-84
2022/05/16 04:06:34;;;;;;;5.10;2.60;;;12.00;98.70;;;;;;5092549;28;20059;-86
2022/05/16 04:09:00;;;;;;;5.22;2.50;;;12.00;98.80;;;;;;5080472;28;20451;-85
2022/05/16 04:11:26;;;;;;;4.55;2.42;;;12.00;98.80;;;;;;5098723;28;20127;-87
2022/05/16 04:13:52;;;;;;;4.20;2.10;;;12.00;98.80;;;;;;5106152;28;20117;-84
2022/05/16 04:16:17;;;;;;;5.45;2.15;;;12.00;98.70;;;;;;5077307;28;20044;-89
2022/05/16 04:18:44;;;;;;;4.30;2.25;;;12.10;98.70;;;;;;5100206;28;20074;-86
2022/05/16 04:21:10;;;;;;;4.85;2.30;;;12.10;98.60;;;;;;5106875;28;20052;-86
2022/05/16 04:23:36;;;;;;;5.40;2.13;;;12.10;98.60;;;;;;5066543;28;20051;-86
2022/05/16 04:26:02;;;;;;;4.55;2.47;;;12.10;98.50;;;;;;5099853;28;20138;-85
2022/05/16 04:28:27;;;;;;;5.07;2.22;;;12.20;98.40;;;;;;5089166;28;20051;-86
2022/05/16 04:30:53;;;;;;;3.92;2.28;;;12.10;98.30;;;;;;5093481;28;20145;-86
2022/05/16 04:33:19;;;;;;;5.00;2.30;;;12.20;98.40;;;;;;5074517;28;20040;-86
2022/05/16 04:35:45;;;;;;;4.97;2.10;;;12.20;98.40;;;;;;5074274;28;20498;-86
2022/05/16 04:38:10;;;;;;;4.75;2.33;;;12.20;98.30;;;;;;5091766;28;20052;-86
2022/05/16 04:42:40;;;;;;;7.85;2.60;;;12.20;98.20;;;;;;5092901;28;20456;-86
2022/05/16 04:43:22;;;;;;;4.88;2.40;;;12.20;98.20;;;;;;5080688;28;20051;-86
2022/05/16 04:45:47;;;;;;;4.28;2.38;;;12.20;98.30;;;;;;5092650;28;20047;-86
2022/05/16 04:48:13;;;;;;;7.57;2.33;;;12.20;98.30;;;;;;5092932;28;20544;-86
2022/05/16 04:50:39;;;;;;;3.88;2.13;;;12.20;98.30;;;;;;5076893;28;20040;-85
2022/05/16 04:53:04;;;;;;;5.72;2.25;;;12.20;98.30;;;;;;5094643;28;20044;-85
2022/05/16 04:55:30;;;;;;;5.53;2.15;;;12.20;98.30;;;;;;5108685;28;20028;-85
2022/05/16 04:57:57;;;;;;;5.15;2.55;;;12.30;98.30;;;;;;5116873;28;20040;-85
2022/05/16 05:00:23;;;;;;;5.85;2.72;;;12.20;98.30;;;;;;5117355;28;20031;-85
2022/05/16 05:02:48;;;;;;;4.65;2.35;;;12.30;98.30;;;;;;5114227;28;20052;-85
2022/05/16 05:05:14;;;;;;;4.20;2.60;;;12.30;98.20;;;;;;5104981;28;20189;-85
2022/05/16 05:07:40;;;;;;;5.57;2.60;;;12.40;98.40;;;;;;5104130;28;20071;-88
2022/05/16 05:15:36;;;;;;;4.43;2.38;;;12.60;98.10;;;;;;5092328;28;20089;-85
2022/05/16 05:18:03;;;;;;;5.32;2.45;;;12.70;98.00;;;;;;5092612;28;20488;-86
2022/05/16 05:20:28;;;;;;;4.03;2.60;;;12.80;97.90;;;;;;5079331;28;20494;-85
2022/05/16 05:22:54;;;;;;;10.20;2.85;;;12.90;97.90;;;;;;5096184;28;20044;-85
2022/05/16 05:25:20;;;;;;;5.78;2.70;;;12.90;97.70;;;;;;5095966;28;20044;-86
2022/05/16 05:27:47;;;;;;;3.88;2.20;;;13.00;97.50;;;;;;5096540;28;20039;-86
2022/05/16 05:30:23;;;;;;;5.93;2.70;;;13.10;97.30;;;;;;5095284;28;20518;-87
2022/05/16 05:32:49;;;;;;;7.03;2.85;;;13.10;97.10;;;;;;5095417;28;20800;-86
2022/05/16 05:35:15;;;;;;;6.63;2.88;;;13.20;97.00;;;;;;5078596;28;20056;-86
2022/05/16 05:37:41;;;;;;;5.97;2.55;;;13.20;97.00;;;;;;5095025;28;20043;-86
2022/05/16 05:40:07;;;;;;;4.05;2.45;;;13.20;97.00;;;;;;5079419;28;20146;-86
2022/05/16 05:42:33;;;;;;;5.68;2.60;;;13.10;97.00;;;;;;5096216;28;20093;-85
2022/05/16 05:44:59;;;;;;;4.88;2.63;;;13.10;97.10;;;;;;5094951;28;20052;-85
2022/05/16 05:47:25;;;;;;;8.30;2.60;;;13.10;97.10;;;;;;5057191;28;20040;-84
2022/05/16 05:49:51;;;;;;;6.53;2.80;;;13.10;97.20;;;;;;5093215;28;20077;-85
2022/05/16 05:52:17;;;;;;;7.68;2.80;;;13.10;97.20;;;;;;5075969;28;20044;-83
2022/05/16 05:54:46;;;;;;;4.95;2.60;;;13.10;97.20;;;;;;5074286;28;20377;-84
2022/05/16 05:57:12;;;;;;;4.85;2.70;;;13.10;97.20;;;;;;5102391;28;20047;-86
2022/05/16 05:59:37;;;;;;;6.88;2.70;;;13.20;97.20;;;;;;5061311;28;20040;-85
2022/05/16 06:02:04;;;;;;;6.20;2.60;;;13.10;97.30;;;;;;5094773;28;20142;-85
2022/05/16 06:04:30;;;;;;;5.32;2.60;;;13.20;97.60;;;;;;5096651;28;20055;-86
2022/05/16 06:06:56;;;;;;;8.00;2.65;;;13.20;97.60;;;;;;5095058;28;20069;-86
2022/05/16 06:09:21;;;;;;;7.97;3.00;;;13.20;97.70;;;;;;5096426;28;20471;-86
2022/05/16 06:11:48;;;;;;;5.75;2.38;;;13.20;97.70;;;;;;5077933;28;20051;-86
2022/05/16 06:14:15;;;;;;;6.25;2.45;;;13.20;97.70;;;;;;5095940;28;20051;-86
2022/05/16 06:16:41;;;;;;;8.23;3.10;;;13.30;97.90;;;;;;5077488;28;20097;-86
2022/05/16 06:19:08;;;;;;;4.85;3.10;;;13.30;97.90;;;;;;5095366;28;20044;-84
2022/05/16 06:21:35;;;;;;;7.18;3.03;;;13.30;97.70;;;;;;5061820;28;20052;-86
2022/05/16 06:24:00;;;;;;;6.45;3.72;;;13.30;99.90;;;;;;5077903;28;20048;-86
2022/05/16 06:26:27;;;;;;;8.38;3.40;;;13.30;99.90;;;;;;5077993;28;20121;-87
2022/05/16 06:28:52;;;;;;;8.48;3.20;;;13.20;99.90;;;;;;5060402;28;20441;-87
2022/05/16 06:31:18;;;;;;;9.25;2.95;;;13.20;99.90;;;;;;5093832;28;20040;-87
2022/05/16 06:33:47;;;;;;;6.57;2.97;;;13.20;99.90;;;;;;5044136;28;20058;-86
2022/05/16 06:36:12;;;;;;;8.50;3.28;;;13.20;99.90;;;;;;5078530;28;20131;-86
2022/05/16 06:38:38;;;;;;;7.30;3.40;;;13.20;99.90;;;;;;5077251;28;20123;-87
2022/05/16 06:41:04;;;;;;;7.88;3.08;;;13.20;99.90;;;;;;5094631;28;20091;-87
2022/05/16 06:43:30;;;;;;;9.07;3.38;;;13.30;99.90;;;;;;5077960;28;20043;-87
2022/05/16 06:45:56;;;;;;;8.43;2.97;;;13.30;99.90;;;;;;5060894;28;20044;-87
2022/05/16 06:48:22;;;;;;;8.07;3.00;;;13.40;99.90;;;;;;5094453;28;20130;-86
2022/05/16 06:50:48;;;;;;;7.50;3.15;;;13.50;99.90;;;;;;5067959;28;20032;-87
2022/05/16 06:53:16;;;;;;;7.15;2.88;;;13.60;99.90;;;;;;5102877;28;20046;-87
2022/05/16 06:55:41;;;;;;;10.13;3.35;;;13.70;99.90;;;;;;5102480;28;20104;-88
2022/05/16 06:58:07;;;;;;;7.55;2.60;;;13.90;99.90;;;;;;5102587;28;20032;-87
2022/05/16 07:00:33;;;;;;;7.05;2.90;;;14.00;99.90;;;;;;5102362;28;20039;-86
2022/05/16 07:02:59;;;;;;;6.53;2.58;;;14.20;99.90;;;;;;5115260;28;20098;-86
2022/05/16 07:05:24;;;;;;;13.05;3.05;;;14.30;99.90;;;;;;5089086;28;20051;-86
2022/05/16 07:07:51;;;;;;;5.97;2.60;;;14.50;99.90;;;;;;5110701;27;20032;-86
2022/05/16 07:10:17;;;;;;;7.63;3.00;;;14.60;99.90;;;;;;5060623;28;20469;-86
2022/05/16 07:12:42;;;;;;;8.50;2.95;;;14.70;99.80;;;;;;5077392;28;20039;-86
2022/05/16 07:15:08;;;;;;;7.22;2.80;;;14.80;99.40;;;;;;5077092;28;20047;-87
2022/05/16 07:17:34;;;;;;;7.43;2.75;;;14.80;99.40;;;;;;5093114;28;20036;-87
2022/05/16 07:20:00;;;;;;;7.38;3.17;;;14.90;99.10;;;;;;5060078;28;20055;-86
2022/05/16 07:22:26;;;;;;;5.65;2.80;;;15.00;98.80;;;;;;5077163;28;20044;-86
2022/05/16 07:24:56;;;;;;;8.18;2.92;;;15.10;98.90;;;;;;5076239;28;20044;-92
2022/05/16 07:30:07;;;;;;;11.80;3.20;;;15.30;98.00;;;;;;5059212;28;20052;-88
2022/05/16 07:32:43;;;;;;;7.25;2.65;;;15.50;98.30;;;;;;5057327;28;20044;-88
2022/05/16 07:35:15;;;;;;;6.65;2.97;;;15.80;98.40;;;;;;5122879;27;20044;-88
2022/05/16 07:37:41;;;;;;;6.28;2.95;;;16.10;98.10;;;;;;5094440;28;20091;-84
2022/05/16 07:40:07;;;;;;;8.05;2.60;;;16.40;97.60;;;;;;5093901;28;20055;-84
2022/05/16 07:42:34;;;;;;;8.40;2.35;;;16.70;97.20;;;;;;5092225;28;20078;-84
2022/05/16 07:45:00;;;;;;;7.18;2.85;;;17.00;96.80;;;;;;5076427;28;20075;-83
2022/05/16 07:47:27;;;;;;;7.50;2.70;;;17.20;95.70;;;;;;5094415;28;20403;-83
2022/05/16 07:49:52;;;;;;;6.47;2.55;;;17.40;95.10;;;;;;5075620;28;20052;-83
2022/05/16 07:52:18;;;;;;;6.80;2.63;;;17.50;94.20;;;;;;5076397;28;20051;-84
2022/05/16 07:54:44;;;;;;;7.20;3.22;;;17.60;93.00;;;;;;5043035;28;20049;-83
2022/05/16 07:57:09;;;;;;;6.00;2.45;;;17.70;91.90;;;;;;5075711;28;20056;-83
2022/05/16 07:59:35;;;;;;;7.13;2.53;;;17.80;91.50;;;;;;5092955;28;20039;-83
2022/05/16 08:02:00;;;;;;;6.05;2.42;;;17.90;91.10;;;;;;5092281;28;20544;-83
2022/05/16 08:04:26;;;;;;;7.15;2.72;;;17.90;90.90;;;;;;5076386;28;20052;-83
2022/05/16 08:06:52;;;;;;;7.05;2.67;;;17.90;90.30;;;;;;5075699;28;20094;-83
2022/05/16 08:12:02;;;;;;;9.35;3.10;;;17.90;90.20;;;;;;5093685;28;20415;-84
2022/05/16 08:14:28;;;;;;;5.65;2.53;;;17.90;90.00;;;;;;5093876;28;20036;-83
2022/05/16 08:16:54;;;;;;;7.07;2.75;;;18.00;90.00;;;;;;5075593;28;20100;-83
2022/05/16 08:19:20;;;;;;;7.97;2.78;;;18.00;89.20;;;;;;5092758;28;20044;-83
2022/05/16 08:21:48;;;;;;;7.45;2.65;;;18.10;89.80;;;;;;5093314;28;20083;-83
2022/05/16 08:24:14;;;;;;;7.10;2.80;;;18.10;88.10;;;;;;5092439;28;20084;-83
2022/05/16 08:26:40;;;;;;;11.00;2.70;;;18.20;87.60;;;;;;5093645;28;20052;-83
2022/05/16 08:29:05;;;;;;;8.20;2.53;;;18.30;87.10;;;;;;5075605;28;20051;-83
2022/05/16 08:31:31;;;;;;;7.53;2.67;;;18.40;85.60;;;;;;5092377;28;20048;-83
2022/05/16 08:33:57;;;;;;;6.32;2.40;;;18.50;85.30;;;;;;5091897;28;20520;-84
2022/05/16 08:42:02;;;;;;;9.68;2.88;;;18.70;84.30;;;;;;5091976;28;20059;-83
2022/05/16 08:44:36;;;;;;;8.27;2.47;;;18.90;83.00;;;;;;5076902;28;20122;-83
2022/05/16 08:47:31;;;;;;;7.97;2.45;;;19.00;83.50;;;;;;5093399;28;20080;-83
2022/05/16 08:49:58;;;;;;;10.35;3.03;;;19.20;82.70;;;;;;5115508;28;20039;-90
2022/05/16 08:52:44;;;;;;;9.27;2.78;;;19.30;82.00;;;;;;5115544;28;20063;-83
2022/05/16 08:55:48;;;;;;;5.68;2.20;;;19.40;81.10;;;;;;5099737;28;20032;-84
2022/05/16 08:58:29;;;;;;;5.72;2.08;;;19.60;81.20;;;;;;5114900;28;20044;-83
2022/05/16 09:01:02;;;;;;;9.63;2.60;;;19.70;80.40;;;;;;5110874;28;20063;-83
2022/05/16 09:04:00;;;;;;;10.40;3.30;;;19.80;79.30;;;;;;5068462;28;20056;-83
2022/05/16 09:06:34;;;;;;;14.05;2.85;;;19.90;79.00;;;;;;5086941;28;20060;-82
2022/05/16 09:09:20;;;;;;;7.95;2.70;;;20.00;78.80;;;;;;5059560;28;20048;-83
2022/05/16 09:11:58;;;;;;;6.93;2.63;;;20.10;79.30;;;;;;5093103;28;20384;-83
2022/05/16 09:14:40;;;;;;;8.27;2.53;;;20.20;78.80;;;;;;5092707;28;20123;-82
2022/05/16 09:17:22;;;;;;;10.65;2.60;;;20.30;79.00;;;;;;5091612;28;20180;-83
2022/05/16 09:20:01;;;;;;;11.80;2.80;;;20.40;77.70;;;;;;5076783;28;20051;-82
2022/05/16 09:22:43;;;;;;;8.70;3.03;;;20.50;77.10;;;;;;5092138;28;20048;-82
2022/05/16 09:25:32;;;;;;;8.00;2.80;;;20.50;75.50;;;;;;5090525;28;20488;-82
2022/05/16 09:30:46;;;;;;;9.40;3.10;;;20.80;75.00;;;;;;5077636;28;20567;-82
2022/05/16 09:33:24;;;;;;;;;;;20.80;74.80;;;;;;5091469;28;20075;-82
2022/05/16 09:35:52;;;;;;;7.45;2.42;;;20.90;75.30;;;;;;5092009;28;20014;-81
2022/05/16 09:38:19;;;;;;;9.25;2.63;;;20.80;75.40;;;;;;5091461;28;20448;-81
2022/05/16 09:41:01;;;;;;;8.63;2.50;;;20.80;75.10;;;;;;5092745;28;20400;-82
2022/05/16 09:43:34;;;;;;;8.18;2.67;;;20.90;74.90;;;;;;5074305;28;20127;-82
2022/05/16 09:46:02;;;;;;;7.43;2.75;;;20.90;74.70;;;;;;5092044;28;20054;-82
2022/05/16 09:48:27;;;;;;;12.02;2.90;;;20.90;73.70;;;;;;5074427;28;20056;-82
2022/05/16 09:51:00;;;;;;;12.15;2.70;;;21.00;73.20;;;;;;5092876;28;20048;-82
2022/05/16 09:53:41;;;;;;;9.43;3.17;;;21.10;72.90;;;;;;5090869;28;20048;-82
2022/05/16 09:56:26;;;;;;;6.40;2.60;;;21.30;72.60;;;;;;5090847;28;20098;-83
2022/05/16 09:59:00;;;;;;;6.45;2.60;;;21.40;71.20;;;;;;5075605;28;20134;-82
2022/05/16 10:01:29;;;;;;;6.30;2.70;;;21.40;72.00;;;;;;5091325;28;20055;-82
2022/05/16 10:03:56;;;;;;;7.32;2.35;;;21.60;70.90;;;;;;5092780;28;20060;-82
2022/05/16 10:06:32;;;;;;;9.32;2.72;;;21.70;69.10;;;;;;5093627;28;20514;-82
2022/05/16 10:09:06;;;;;;;8.27;2.45;;;22.00;69.80;;;;;;5095272;28;20051;-82
2022/05/16 10:11:32;;;;;;;7.03;2.60;;;22.20;68.70;;;;;;5096401;28;20059;-82
2022/05/16 10:13:58;;;;;;;8.23;2.88;;;22.30;67.90;;;;;;5096278;28;20051;-83
2022/05/16 10:16:26;;;;;;;6.53;2.50;;;22.50;67.70;;;;;;5070191;28;20040;-83
2022/05/16 10:18:57;;;;;;;8.32;2.78;;;22.60;66.80;;;;;;5058421;28;20048;-82
2022/05/16 10:21:35;;;;;;;7.90;2.40;;;22.70;66.60;;;;;;5074508;28;20047;-82
2022/05/16 10:24:01;;;;;;;5.20;2.65;;;22.90;66.80;;;;;;5074678;28;20051;-82
2022/05/16 10:26:30;;;;;;;9.00;2.55;;;23.10;66.90;;;;;;5093083;28;20403;-82
2022/05/16 10:29:12;;;;;;;8.00;2.97;;;23.20;66.90;;;;;;5094824;28;20083;-82
2022/05/16 10:35:07;;;;;;;11.23;3.30;;;23.40;64.40;;;;;;5080874;28;20056;-82
2022/05/16 10:37:35;;;;;;;6.45;2.63;;;23.40;64.00;;;;;;5074369;28;20050;-83
2022/05/16 10:40:12;;;;;;;5.95;2.60;;;23.30;64.50;;;;;;5091632;28;20123;-83
2022/05/16 10:42:50;;;;;;;7.43;2.50;;;23.30;63.90;;;;;;5041781;28;20064;-84
2022/05/16 10:45:18;;;;;;;8.18;2.83;;;23.30;62.50;;;;;;5085436;28;20407;-83
2022/05/16 10:48:05;;;;;;;6.70;2.40;;;23.40;62.80;;;;;;5094878;28;20044;-84
2022/05/16 10:50:43;;;;;;;9.48;2.58;;;23.40;62.40;;;;;;5077508;28;20047;-85
2022/05/16 10:53:23;;;;;;;9.15;2.70;;;23.40;62.40;;;;;;5078384;28;20067;-84
2022/05/16 10:55:52;;;;;;;4.85;2.35;;;23.30;63.30;;;;;;5095955;28;20399;-83
2022/05/16 10:58:29;;;;;;;9.40;2.60;;;23.20;64.00;;;;;;5077546;28;20048;-84
2022/05/16 11:01:03;;;;;;;9.90;2.80;;;23.20;64.10;;;;;;5107969;28;20034;-83
2022/05/16 11:03:43;;;;;;;8.27;2.60;;;23.10;65.40;;;;;;5118658;28;20092;-84
2022/05/16 11:06:31;;;;;;;9.63;2.95;;;23.00;66.00;;;;;;5119723;28;20048;-83
2022/05/16 11:09:08;;;;;;;6.60;2.47;;;22.90;67.20;;;;;;5099593;28;20056;-84
2022/05/16 11:11:57;;;;;;;10.20;4.10;;;22.90;69.30;;;;;;5129077;28;20100;-84
2022/05/16 11:14:23;;;;;;;9.82;2.92;;;22.90;72.20;;;;;;5109690;28;20069;-85
2022/05/16 11:16:50;;;;;;;10.07;3.20;;;22.80;70.10;;;;;;5112051;28;20048;-83
2022/05/16 11:19:19;;;;;;;11.15;3.15;;;22.80;67.70;;;;;;5084368;28;20110;-87
2022/05/16 11:21:58;;;;;;;6.93;3.00;;;22.80;66.80;;;;;;5102372;28;20055;-82
2022/05/16 11:25:04;;;;;;;6.15;2.80;;;22.80;67.90;;;;;;5078296;28;20139;-83
2022/05/16 11:27:42;;;;;;;10.43;3.08;;;22.70;69.00;;;;;;5093828;28;20056;-82
2022/05/16 11:30:26;;;;;;;9.32;2.90;;;22.70;68.70;;;;;;5094064;28;20109;-82
2022/05/16 11:33:11;;;;;;;7.22;2.50;;;22.60;71.40;;;;;;5094579;28;20036;-82
2022/05/16 11:35:45;;;;;;;11.15;3.20;;;22.60;72.30;;;;;;5094327;28;20040;-82
2022/05/16 11:38:21;;;;;;;8.25;2.95;;;22.50;72.30;;;;;;5093790;28;20429;-82
2022/05/16 11:41:11;;;;;;;7.97;3.38;;;22.60;73.30;;;;;;5093465;28;20102;-82
2022/05/16 11:43:48;;;;;;;9.10;3.60;;;22.70;71.20;;;;;;5092717;28;20040;-82
2022/05/16 11:46:29;;;;;;;10.05;4.10;;;22.80;71.40;;;;;;5075797;28;20173;-82
2022/05/16 11:49:13;;;;;;;9.93;3.40;;;22.80;69.80;;;;;;5095263;28;20052;-82
2022/05/16 11:51:58;;;;;;;8.52;3.25;;;23.00;69.10;;;;;;5061049;28;20116;-82
2022/05/16 11:54:28;;;;;;;8.98;3.40;;;23.00;68.50;;;;;;5093952;28;20044;-82
2022/05/16 12:02:52;;;;;;;5.40;3.03;;;23.10;68.20;;;;;;5063125;28;20088;-82
2022/05/16 12:05:20;;;;;;;7.63;3.20;;;23.10;68.30;;;;;;5074176;28;20045;-81
2022/05/16 12:07:57;;;;;;;10.35;3.42;;;23.10;68.60;;;;;;5073571;28;20044;-82
2022/05/16 12:10:25;;;;;;;9.07;3.30;;;23.00;68.80;;;;;;5072199;28;20040;-89
2022/05/16 12:13:23;;;;;;;9.68;3.42;;;22.90;69.70;;;;;;5083722;28;20032;-83
2022/05/16 12:16:12;;;;;;;8.85;3.55;;;22.90;70.80;;;;;;5076164;28;20484;-83
2022/05/16 12:18:39;;;;;;;7.05;3.22;;;22.90;70.00;;;;;;5092643;28;20040;-83
2022/05/16 12:21:10;;;;;;;8.77;3.42;;;22.90;70.00;;;;;;5075644;28;20492;-84
2022/05/16 12:23:48;;;;;;;9.07;3.17;;;23.00;69.00;;;;;;5091853;28;20041;-84
2022/05/16 12:26:26;;;;;;;7.85;3.22;;;23.20;70.20;;;;;;5093010;28;20105;-83
2022/05/16 12:29:08;;;;;;;12.18;3.67;;;23.30;70.80;;;;;;5092236;28;20135;-83
2022/05/16 12:31:44;;;;;;;9.07;3.58;;;23.50;69.50;;;;;;5093024;28;20391;-84
2022/05/16 12:34:10;;;;;;;6.78;3.22;;;23.60;68.70;;;;;;5072064;28;20044;-83
2022/05/16 12:36:35;;;;;;;8.88;3.30;;;23.70;66.80;;;;;;5071947;28;20044;-84
2022/05/16 12:39:09;;;;;;;9.63;3.28;;;23.80;67.60;;;;;;5072174;28;20055;-84
2022/05/16 12:41:51;;;;;;;10.05;3.58;;;23.80;67.70;;;;;;5089875;28;20054;-84
2022/05/16 12:44:23;;;;;;;13.15;4.13;;;23.90;67.60;;;;;;5076843;28;20507;-84
2022/05/16 12:46:51;;;;;;;9.73;4.05;;;24.00;66.90;;;;;;5093000;28;20408;-83
2022/05/16 12:49:50;;;;;;;10.07;3.92;;;24.20;66.20;;;;;;5093607;28;20040;-84
2022/05/16 12:52:42;;;;;;;12.35;4.50;;;24.20;66.40;;;;;;5092693;28;20048;-84
2022/05/16 12:55:21;;;;;;;9.00;3.50;;;24.40;67.20;;;;;;5092276;28;20422;-84
2022/05/16 12:58:01;;;;;;;9.55;3.92;;;24.60;67.60;;;;;;5075500;28;20056;-83
2022/05/16 13:00:28;;;;;;;9.57;3.88;;;24.70;66.50;;;;;;5091804;28;20055;-84
2022/05/16 13:03:15;;;;;;;10.15;3.85;;;24.80;66.20;;;;;;5092749;28;20056;-83
2022/05/16 13:06:03;;;;;;;10.43;4.43;;;24.80;65.70;;;;;;5093071;28;20453;-84
2022/05/16 13:08:45;;;;;;;10.00;4.05;;;24.90;64.50;;;;;;5076632;28;20550;-83
2022/05/16 13:11:25;;;;;;;9.07;3.97;;;25.00;65.00;;;;;;5075320;28;20080;-84
2022/05/16 13:14:05;;;;;;;8.65;3.60;;;25.10;64.40;;;;;;5092775;28;20428;-83
2022/05/16 13:17:14;;;;;;;7.95;3.88;;;25.10;64.20;;;;;;5091921;28;20511;-83
2022/05/16 13:19:44;;;;;;;7.70;3.47;;;25.00;64.20;;;;;;5074929;28;20518;-83
2022/05/16 13:22:17;;;;;;;8.95;3.38;;;24.90;64.50;;;;;;5074948;28;20137;-84
2022/05/16 13:24:43;;;;;;;10.70;4.20;;;24.80;64.90;;;;;;5092925;28;20051;-84
2022/05/16 13:29:56;;;;;;;7.35;4.35;;;24.60;65.30;;;;;;5117599;28;20066;-85
2022/05/16 13:32:27;;;;;;;6.78;4.70;;;24.50;65.80;;;;;;5117398;28;20020;-87
2022/05/16 13:34:55;;;;;;;8.10;4.40;;;24.50;66.30;;;;;;5099600;28;20052;-84
2022/05/16 13:37:22;;;;;;;10.90;5.65;;;24.40;67.00;;;;;;5114189;28;20043;-83
2022/05/16 13:39:50;;;;;;;8.45;4.78;;;24.40;66.30;;;;;;5090181;28;20056;-84
2022/05/16 13:42:20;;;;;;;8.98;5.28;;;24.40;67.10;;;;;;5091650;28;20050;-83